Time;durP1;ratioP1;P1;durP2;ratioP2;P2;SDS_P1;SDS_P2;PMS_P1;PMS_P2;Temp;Humidity;BMP_temperature;BMP_pressure;BME280_temperature;BME280_humidity;BME280_pressure;Samples;Min_cycle;Max_cycle;Signal;HPM_P1;HPM_P2
2021/03/12 00:00:41;;;;;;;;;;;12.30;99.90;;;11.80;100.00;101759.38;5073484;28;20248;-63
2021/03/12 00:03:12;;;;;;;;;;;12.40;99.90;;;11.88;100.00;101755.28;5074195;28;19924;-63
2021/03/12 00:05:43;;;;;;;;;;;12.50;99.90;;;11.84;100.00;101755.03;5073085;28;19928;-63
2021/03/12 00:08:11;;;;;;;;;;;12.50;99.90;;;11.83;100.00;101758.00;5073456;28;19928;-63
2021/03/12 00:10:38;;;;;;;;;;;12.40;99.90;;;11.83;100.00;101755.28;5074562;28;19924;-62
2021/03/12 00:13:06;;;;;;;;;;;12.30;99.90;;;11.71;100.00;101760.19;5074179;28;19924;-63
2021/03/12 00:15:33;;;;;;;;;;;12.40;99.90;;;11.64;100.00;101756.94;5073332;28;19978;-62
2021/03/12 00:18:00;;;;;;;;;;;12.30;99.90;;;11.68;100.00;101755.28;5073237;28;19932;-62
2021/03/12 00:20:37;;;;;;;;;;;12.30;99.90;;;11.72;100.00;101745.56;5074148;28;19932;-62
2021/03/12 00:23:04;;;;;;;;;;;12.30;99.90;;;11.77;100.00;101740.94;5074418;28;20383;-62
2021/03/12 00:25:35;;;;;;;;;;;12.40;99.90;;;11.79;100.00;101729.84;5073717;28;19936;-63
2021/03/12 00:28:02;;;;;;;;;;;12.40;99.90;;;11.80;100.00;101734.97;5073982;28;20279;-63
2021/03/12 00:30:29;;;;;;;;;;;12.40;99.90;;;11.82;100.00;101740.94;5078267;28;19933;-63
2021/03/12 00:32:57;;;;;;;;;;;12.40;99.90;;;11.88;100.00;101739.84;5077766;28;19932;-63
2021/03/12 00:35:25;;;;;;;;;;;12.50;99.90;;;11.89;100.00;101729.78;5077912;28;20023;-63
2021/03/12 00:37:53;;;;;;;;;;;12.50;99.90;;;11.89;100.00;101735.22;5077611;28;19978;-63
2021/03/12 00:40:25;;;;;;;;;;;12.50;99.90;;;11.93;100.00;101733.59;5078311;28;19951;-63
2021/03/12 00:42:53;;;;;;;;;;;12.60;99.90;;;11.91;100.00;101733.88;5078045;28;19924;-62
2021/03/12 00:45:21;;;;;;;;;;;12.50;99.90;;;12.02;100.00;101731.94;5076956;28;19975;-63
2021/03/12 00:47:48;;;;;;;;;;;12.60;99.90;;;12.07;100.00;101730.00;5077096;28;19924;-63
2021/03/12 00:50:22;;;;;;;;;;;12.70;99.90;;;12.03;100.00;101722.72;5077155;28;19932;-63
2021/03/12 00:52:49;;;;;;;;;;;12.60;99.90;;;12.01;100.00;101722.16;5077663;28;19928;-63
2021/03/12 00:55:17;;;;;;;;;;;12.60;99.90;;;11.97;100.00;101716.50;5076413;28;19931;-62
2021/03/12 00:57:44;;;;;;;;;;;12.60;99.90;;;11.95;100.00;101718.66;5077300;28;19931;-63
2021/03/12 01:00:13;;;;;;;;;;;12.60;99.90;;;12.04;100.00;101717.00;5077283;28;19978;-62
2021/03/12 01:02:41;;;;;;;;;;;12.70;99.90;;;12.15;100.00;101714.25;5078088;28;19928;-62
2021/03/12 01:05:09;;;;;;;;;;;12.70;99.90;;;12.20;100.00;101706.09;5077143;28;19994;-62
2021/03/12 01:07:36;;;;;;;;;;;12.80;99.90;;;12.20;100.00;101706.09;5077204;28;19978;-63
2021/03/12 01:10:06;;;;;;;;;;;12.80;99.90;;;12.24;100.00;101715.28;5077363;28;19925;-62
2021/03/12 01:12:35;;;;;;;;;;;12.80;99.90;;;12.27;100.00;101698.47;5077938;28;20007;-63
2021/03/12 01:15:06;;;;;;;;;;;12.90;99.90;;;12.30;100.00;101700.63;5077049;28;19931;-63
2021/03/12 01:17:33;;;;;;;;;;;12.90;99.90;;;12.26;100.00;101697.66;5076806;28;20281;-63
2021/03/12 01:20:00;;;;;;;;;;;12.90;99.90;;;12.23;100.00;101705.53;5077413;28;19932;-63
2021/03/12 01:22:28;;;;;;;;;;;12.80;99.90;;;12.24;100.00;101704.44;5076978;28;20408;-62
2021/03/12 01:24:55;;;;;;;;;;;12.80;99.90;;;12.23;100.00;101703.63;5076889;28;19931;-62
2021/03/12 01:27:22;;;;;;;;;;;12.80;99.90;;;12.23;100.00;101700.09;5076499;28;19929;-63
2021/03/12 01:29:50;;;;;;;;;;;12.80;99.90;;;12.17;100.00;101693.09;5076579;28;19924;-62
2021/03/12 01:32:18;;;;;;;;;;;12.80;99.90;;;12.19;100.00;101689.00;5076246;28;20023;-63
2021/03/12 01:34:45;;;;;;;;;;;12.80;99.90;;;12.18;100.00;101687.41;5076672;28;19939;-63
2021/03/12 01:37:12;;;;;;;;;;;12.70;99.90;;;12.15;100.00;101695.28;5076074;28;19925;-62
2021/03/12 01:39:40;;;;;;;;;;;12.70;99.90;;;12.14;100.00;101696.34;5075823;28;19924;-63
2021/03/12 01:42:08;;;;;;;;;;;12.70;99.90;;;12.10;100.00;101690.69;5076269;28;19925;-63
2021/03/12 01:44:35;;;;;;;;;;;12.70;99.90;;;12.07;100.00;101694.75;5076410;28;20365;-62
2021/03/12 01:47:03;;;;;;;;;;;12.60;99.90;;;11.98;100.00;101691.00;5075850;28;19924;-62
2021/03/12 01:49:30;;;;;;;;;;;12.60;99.90;;;11.95;100.00;101691.56;5076321;28;19924;-63
2021/03/12 01:51:58;;;;;;;;;;;12.50;99.90;;;11.91;100.00;101684.28;5076238;28;19925;-63
2021/03/12 01:54:25;;;;;;;;;;;12.50;99.90;;;11.88;100.00;101679.41;5076314;28;19928;-63
2021/03/12 01:56:52;;;;;;;;;;;12.50;99.90;;;11.78;100.00;101674.84;5075770;28;19947;-62
2021/03/12 01:59:20;;;;;;;;;;;12.40;99.90;;;11.77;100.00;101675.91;5076279;28;19989;-63
2021/03/12 02:01:47;;;;;;;;;;;12.30;99.90;;;11.78;100.00;101682.16;5074058;28;20282;-62
2021/03/12 02:04:15;;;;;;;;;;;12.30;99.90;;;11.74;100.00;101675.66;5076362;28;19925;-62
2021/03/12 02:06:43;;;;;;;;;;;12.30;99.90;;;11.68;100.00;101674.84;5075310;28;19924;-62
2021/03/12 02:09:11;;;;;;;;;;;12.20;99.90;;;11.58;100.00;101672.16;5075833;28;20366;-62
2021/03/12 02:11:38;;;;;;;;;;;12.10;99.90;;;11.57;100.00;101664.31;5075488;28;20271;-62
2021/03/12 02:14:10;;;;;;;;;;;12.10;99.90;;;11.49;100.00;101666.50;5075984;28;19932;-63
2021/03/12 02:16:42;;;;;;;;;;;12.00;99.90;;;11.33;100.00;101651.38;5075243;28;20302;-63
2021/03/12 02:19:19;;;;;;;;;;;11.90;99.90;;;11.18;100.00;101664.13;5075741;28;19978;-62
2021/03/12 02:21:51;;;;;;;;;;;11.80;99.90;;;11.21;100.00;101669.00;5076055;28;19928;-62
2021/03/12 02:24:25;;;;;;;;;;;11.80;99.90;;;11.23;100.00;101673.06;5075692;28;19924;-63
2021/03/12 02:27:05;;;;;;;;;;;11.80;99.90;;;11.21;100.00;101664.41;5075218;28;20453;-63
2021/03/12 02:29:33;;;;;;;;;;;11.80;99.90;;;11.21;100.00;101658.19;5075642;28;19935;-63
2021/03/12 02:32:03;;;;;;;;;;;11.80;99.90;;;11.25;100.00;101648.41;5074972;28;20396;-63
2021/03/12 02:34:35;;;;;;;;;;;11.80;99.90;;;11.30;100.00;101648.41;5075154;28;20324;-63
2021/03/12 02:37:06;;;;;;;;;;;11.80;99.90;;;11.31;100.00;101641.88;5074259;28;19935;-63
2021/03/12 02:39:35;;;;;;;;;;;11.90;99.90;;;11.33;100.00;101640.56;5075232;28;19960;-63
2021/03/12 02:42:04;;;;;;;;;;;11.90;99.90;;;11.44;100.00;101642.13;5074872;28;20002;-63
2021/03/12 02:44:33;;;;;;;;;;;12.00;99.90;;;11.50;100.00;101641.03;5074793;28;20306;-63
2021/03/12 02:47:05;;;;;;;;;;;12.10;99.90;;;11.40;100.00;101637.53;5075279;28;19941;-63
2021/03/12 02:49:32;;;;;;;;;;;12.00;99.90;;;11.29;100.00;101634.06;5075641;28;19929;-63
2021/03/12 02:52:00;;;;;;;;;;;11.90;99.90;;;11.25;100.00;101629.44;5075486;28;19928;-63
2021/03/12 02:54:28;;;;;;;;;;;11.80;99.90;;;11.22;100.00;101621.88;5075496;28;19925;-63
2021/03/12 02:56:55;;;;;;;;;;;11.80;99.90;;;11.12;100.00;101616.50;5074886;28;19929;-63
2021/03/12 02:59:24;;;;;;;;;;;11.70;99.90;;;11.15;100.00;101602.41;5075433;28;19932;-63
2021/03/12 03:01:53;;;;;;;;;;;11.70;99.90;;;11.22;100.00;101598.31;5074692;28;19933;-63
2021/03/12 03:04:21;;;;;;;;;;;11.80;99.90;;;11.25;100.00;101597.78;5075016;28;19983;-63
2021/03/12 03:06:50;;;;;;;;;;;11.80;99.90;;;11.27;100.00;101592.91;5074855;28;19924;-63
2021/03/12 03:09:18;;;;;;;;;;;11.80;99.90;;;11.30;100.00;101586.13;5075603;28;19924;-63
2021/03/12 03:11:45;;;;;;;;;;;11.90;99.90;;;11.29;100.00;101577.19;5074295;28;20262;-63
2021/03/12 03:14:14;;;;;;;;;;;11.90;99.90;;;11.28;100.00;101580.16;5075074;28;19925;-63
2021/03/12 03:16:44;;;;;;;;;;;11.80;99.90;;;11.27;100.00;101579.38;5074171;28;19931;-63
2021/03/12 03:19:12;;;;;;;;;;;11.80;99.90;;;11.26;100.00;101574.22;5074871;28;20361;-63
2021/03/12 03:21:41;;;;;;;;;;;11.80;99.90;;;11.26;100.00;101574.22;5074054;28;19924;-63
2021/03/12 03:24:09;;;;;;;;;;;11.80;99.90;;;11.24;100.00;101568.28;5074314;28;20362;-63
2021/03/12 03:26:37;;;;;;;;;;;11.80;99.90;;;11.18;100.00;101574.81;5074593;28;19928;-63
2021/03/12 03:29:05;;;;;;;;;;;11.70;99.90;;;11.09;100.00;101577.25;5074768;28;19935;-63
2021/03/12 03:31:33;;;;;;;;;;;11.70;99.90;;;11.06;100.00;101580.53;5074746;28;19928;-62
2021/03/12 03:34:02;;;;;;;;;;;11.70;99.90;;;11.17;100.00;101592.13;5075271;28;19925;-62
2021/03/12 03:36:30;;;;;;;;;;;11.70;99.90;;;11.24;100.00;101592.66;5074506;28;19925;-62
2021/03/12 03:38:57;;;;;;;;;;;11.80;99.90;;;11.23;100.00;101596.44;5073882;28;19931;-62
2021/03/12 03:41:25;;;;;;;;;;;11.80;99.90;;;11.21;100.00;101595.91;5073956;28;19932;-63
2021/03/12 03:43:53;;;;;;;;;;;11.80;99.90;;;11.05;100.00;101597.03;5074816;28;20413;-63
2021/03/12 03:46:21;;;;;;;;;;;11.60;99.90;;;10.89;100.00;101591.63;5074548;28;19928;-62
2021/03/12 03:48:49;;;;;;;;;;;11.50;99.90;;;10.74;100.00;101597.06;5074664;28;19924;-63
2021/03/12 03:51:19;;;;;;;;;;;11.30;99.90;;;10.64;100.00;101598.97;5075676;28;20388;-62
2021/03/12 03:53:47;;;;;;;;;;;11.20;99.90;;;10.66;100.00;101602.22;5074476;28;19982;-63
2021/03/12 03:56:17;;;;;;;;;;;11.20;99.90;;;10.61;100.00;101603.00;5073937;28;19936;-63
2021/03/12 03:58:45;;;;;;;;;;;11.20;99.90;;;10.60;100.00;101608.69;5074926;28;19932;-63
2021/03/12 04:01:14;;;;;;;;;;;11.10;99.90;;;10.58;100.00;101600.84;5074306;28;19932;-63
2021/03/12 04:03:41;;;;;;;;;;;11.10;99.90;;;10.62;100.00;101601.13;5074780;28;19925;-63
2021/03/12 04:06:09;;;;;;;;;;;11.20;99.90;;;10.65;100.00;101611.41;5074369;28;20507;-63
2021/03/12 04:08:38;;;;;;;;;;;11.20;99.90;;;10.64;100.00;101597.06;5074320;28;19930;-63
2021/03/12 04:11:07;;;;;;;;;;;11.20;99.90;;;10.61;100.00;101594.91;5074294;28;19924;-63
2021/03/12 04:13:34;;;;;;;;;;;11.20;99.90;;;10.57;100.00;101593.84;5074247;28;19924;-63
2021/03/12 04:16:02;;;;;;;;;;;11.20;99.90;;;10.59;100.00;101598.97;5072872;28;19927;-63
2021/03/12 04:18:29;;;;;;;;;;;11.20;99.90;;;10.59;100.00;101588.13;5073762;28;19925;-63
2021/03/12 04:20:58;;;;;;;;;;;11.20;99.90;;;10.52;100.00;101595.72;5074057;28;19925;-63
2021/03/12 04:23:25;;;;;;;;;;;11.10;99.90;;;10.37;100.00;101596.50;5074315;28;19978;-63
2021/03/12 04:25:54;;;;;;;;;;;11.00;99.90;;;10.35;100.00;101595.97;5073678;28;19928;-63
2021/03/12 04:28:21;;;;;;;;;;;11.00;99.90;;;10.35;100.00;101602.19;5072554;28;19931;-63
2021/03/12 04:30:49;;;;;;;;;;;10.90;99.90;;;10.41;100.00;101605.72;5073701;28;19924;-63
2021/03/12 04:33:17;;;;;;;;;;;11.00;99.90;;;10.45;100.00;101604.09;5072571;28;19929;-63
2021/03/12 04:35:44;;;;;;;;;;;11.00;99.90;;;10.45;100.00;101601.41;5071550;28;19974;-63
2021/03/12 04:38:12;;;;;;;;;;;11.00;99.90;;;10.45;100.00;101596.00;5072491;28;19935;-63
2021/03/12 04:40:39;;;;;;;;;;;11.00;99.90;;;10.41;100.00;101593.00;5072749;28;19925;-63
2021/03/12 04:43:08;;;;;;;;;;;11.00;99.90;;;10.38;100.00;101593.56;5073577;28;19928;-63
2021/03/12 04:45:36;;;;;;;;;;;10.90;99.90;;;10.37;100.00;101602.75;5073008;28;19928;-63
2021/03/12 04:48:06;;;;;;;;;;;11.00;99.90;;;10.45;100.00;101603.28;5073245;28;19928;-63
2021/03/12 04:50:34;;;;;;;;;;;11.00;99.90;;;10.52;100.00;101593.81;5073539;28;19948;-63
2021/03/12 04:53:01;;;;;;;;;;;11.10;99.90;;;10.53;100.00;101598.16;5073516;28;19924;-63
2021/03/12 04:55:29;;;;;;;;;;;11.10;99.90;;;10.58;100.00;101598.13;5072939;28;19931;-63
2021/03/12 04:57:56;;;;;;;;;;;11.10;99.90;;;10.59;100.00;101601.66;5072428;28;20356;-63
2021/03/12 05:00:25;;;;;;;;;;;11.10;99.90;;;10.58;100.00;101602.75;5073195;28;20370;-63
2021/03/12 05:02:54;;;;;;;;;;;11.20;99.90;;;10.59;100.00;101601.66;5073629;28;19925;-63
2021/03/12 05:05:23;;;;;;;;;;;11.20;99.90;;;10.60;100.00;101603.28;5073106;28;19935;-63
2021/03/12 05:07:51;;;;;;;;;;;11.20;99.90;;;10.63;100.00;101602.75;5072378;28;20309;-63
2021/03/12 05:10:19;;;;;;;;;;;11.20;99.90;;;10.67;100.00;101609.25;5073338;28;19946;-63
2021/03/12 05:12:46;;;;;;;;;;;11.20;99.90;;;10.70;100.00;101606.78;5073505;28;19925;-63
2021/03/12 05:15:14;;;;;;;;;;;11.30;99.90;;;10.69;100.00;101610.59;5075253;28;19925;-63
2021/03/12 05:17:42;;;;;;;;;;;11.30;99.90;;;10.72;100.00;101610.06;5076749;28;20298;-63
2021/03/12 05:20:11;;;;;;;;;;;11.30;99.90;;;10.66;100.00;101608.44;5076712;28;19934;-63
2021/03/12 05:22:39;;;;;;;;;;;11.30;99.90;;;10.70;100.00;101616.81;5077009;28;20370;-63
2021/03/12 05:25:08;;;;;;;;;;;11.30;99.90;;;10.71;100.00;101613.84;5076522;28;19931;-63
2021/03/12 05:27:35;;;;;;;;;;;11.30;99.90;;;10.68;100.00;101617.09;5076453;28;19928;-63
2021/03/12 05:30:02;;;;;;;;;;;11.30;99.90;;;10.64;100.00;101624.09;5077009;28;19925;-63
2021/03/12 05:32:29;;;;;;;;;;;11.20;99.90;;;10.62;100.00;101622.75;5076982;28;20329;-63
2021/03/12 05:34:58;;;;;;;;;;;11.20;99.90;;;10.51;100.00;101621.13;5076880;28;19924;-63
2021/03/12 05:37:25;;;;;;;;;;;11.10;99.90;;;10.50;100.00;101620.31;5075880;28;20379;-63
2021/03/12 05:39:52;;;;;;;;;;;11.10;99.90;;;10.50;100.00;101617.63;5076659;28;19931;-63
2021/03/12 05:42:20;;;;;;;;;;;11.10;99.90;;;10.49;100.00;101617.91;5076558;28;19929;-63
2021/03/12 05:44:47;;;;;;;;;;;11.00;99.90;;;10.50;100.00;101622.22;5076872;28;20395;-63
2021/03/12 05:47:15;;;;;;;;;;;11.10;99.90;;;10.49;100.00;101620.59;5075694;28;19932;-63
2021/03/12 05:49:43;;;;;;;;;;;11.10;99.90;;;10.48;100.00;101627.09;5076254;28;20388;-63
2021/03/12 05:52:12;;;;;;;;;;;11.10;99.90;;;10.46;100.00;101621.16;5076988;28;19924;-63
2021/03/12 05:54:41;;;;;;;;;;;11.00;99.90;;;10.40;100.00;101614.91;5075883;28;19924;-63
2021/03/12 05:57:08;;;;;;;;;;;11.00;99.90;;;10.49;100.00;101618.69;5075242;28;19924;-63
2021/03/12 05:59:35;;;;;;;;;;;11.10;99.90;;;10.62;100.00;101620.06;5076964;28;20078;-63
2021/03/12 06:02:03;;;;;;;;;;;11.10;99.90;;;10.84;100.00;101626.81;5076181;28;20427;-63
2021/03/12 06:04:30;;;;;;;;;;;11.30;99.90;;;11.06;100.00;101613.00;5076437;28;19928;-63
2021/03/12 06:06:57;;;;;;;;;;;11.60;99.90;;;11.21;100.00;101614.84;5075612;28;19924;-63
2021/03/12 06:09:26;;;;;;;;;;;11.70;99.90;;;11.26;100.00;101620.25;5077106;28;19925;-63
2021/03/12 06:11:54;;;;;;;;;;;11.80;99.90;;;11.32;100.00;101616.44;5076121;28;19924;-63
2021/03/12 06:14:52;;;;;;;;;;;11.90;99.90;;;11.35;100.00;101621.31;5076001;28;20336;-63
2021/03/12 06:17:33;;;;;;;;;;;11.90;99.90;;;11.24;100.00;101631.38;5075573;28;19924;-63
2021/03/12 06:20:01;;;;;;;;;;;11.90;99.90;;;11.18;100.00;101634.34;5075659;28;19924;-62
2021/03/12 06:22:29;;;;;;;;;;;11.80;99.90;;;11.10;100.00;101634.88;5075961;28;19925;-62
2021/03/12 06:25:11;;;;;;;;;;;11.70;99.90;;;11.02;100.00;101644.38;5075965;28;19928;-62
2021/03/12 06:27:39;;;;;;;;;;;11.60;99.90;;;10.89;100.00;101645.75;5075803;28;19924;-62
2021/03/12 06:30:08;;;;;;;;;;;11.50;99.90;;;10.82;100.00;101645.19;5076335;28;19924;-63
2021/03/12 06:32:40;;;;;;;;;;;11.40;99.90;;;10.80;100.00;101647.38;5076743;28;20075;-62
2021/03/12 06:35:09;;;;;;;;;;;11.40;99.90;;;10.74;100.00;101643.06;5076079;28;19999;-62
2021/03/12 06:37:37;;;;;;;;;;;11.40;99.90;;;10.71;100.00;101651.72;5075814;28;19929;-62
2021/03/12 06:40:20;;;;;;;;;;;11.30;99.90;;;10.68;100.00;101643.31;5076215;28;19924;-63
2021/03/12 06:43:07;;;;;;;;;;;11.30;99.90;;;10.61;100.00;101643.56;5076172;28;19924;-62
2021/03/12 06:45:38;;;;;;;;;;;;;;;10.50;100.00;101641.97;5075159;28;19925;-62
2021/03/12 06:48:16;;;;;;;;;;;11.10;99.90;;;10.38;100.00;101647.63;5074599;28;19931;-63
2021/03/12 06:50:45;;;;;;;;;;;11.00;99.90;;;10.45;100.00;101651.97;5074617;28;19924;-63
2021/03/12 06:53:24;;;;;;;;;;;11.00;99.90;;;10.46;100.00;101654.38;5075510;28;19932;-63
2021/03/12 06:55:53;;;;;;;;;;;11.10;99.90;;;10.44;100.00;101653.84;5074363;28;19924;-63
2021/03/12 06:58:21;;;;;;;;;;;11.00;99.90;;;10.48;100.00;101651.44;5074461;28;19936;-63
2021/03/12 07:00:48;;;;;;;;;;;11.00;99.90;;;10.60;100.00;101658.19;5075127;28;19932;-63
2021/03/12 07:03:36;;;;;;;;;;;11.10;99.90;;;10.73;100.00;101652.22;5075031;28;20429;-63
2021/03/12 07:06:06;;;;;;;;;;;11.30;99.90;;;10.83;100.00;101654.94;5067145;28;20382;-63
2021/03/12 07:08:40;;;;;;;;;;;11.40;99.90;;;10.89;100.00;101659.28;5074549;28;19931;-62
2021/03/12 07:11:19;;;;;;;;;;;11.50;99.90;;;10.93;100.00;101657.66;5074786;28;19932;-62
2021/03/12 07:13:48;;;;;;;;;;;11.50;99.90;;;10.98;100.00;101668.47;5075128;28;19932;-63
2021/03/12 07:16:15;;;;;;;;;;;11.50;99.90;;;11.11;100.00;101664.41;5073839;28;19978;-63
2021/03/12 07:18:43;;;;;;;;;;;11.70;99.90;;;11.23;100.00;101664.94;5074973;28;19924;-63
2021/03/12 07:21:11;;;;;;;;;;;11.70;99.90;;;11.40;100.00;101659.19;5075130;28;19929;-63
2021/03/12 07:23:42;;;;;;;;;;;11.90;99.90;;;11.53;100.00;101664.03;5075005;28;19947;-63
2021/03/12 07:26:11;;;;;;;;;;;12.10;99.90;;;11.69;100.00;101675.66;5074896;28;19924;-63
2021/03/12 07:28:42;;;;;;;;;;;12.20;99.90;;;11.82;100.00;101666.97;5074585;28;19928;-62
2021/03/12 07:31:12;;;;;;;;;;;12.40;99.90;;;11.93;100.00;101669.34;5075347;28;19947;-62
2021/03/12 07:33:42;;;;;;;;;;;12.50;99.90;;;12.01;100.00;101671.47;5074763;28;19988;-62
2021/03/12 07:36:11;;;;;;;;;;;12.60;99.90;;;12.08;100.00;101679.31;5074504;28;19931;-62
2021/03/12 07:38:40;;;;;;;;;;;12.70;99.90;;;12.17;100.00;101674.09;5073846;28;20022;-63
2021/03/12 07:41:08;;;;;;;;;;;12.70;99.90;;;12.24;100.00;101678.16;5074165;28;19951;-63
2021/03/12 07:43:36;;;;;;;;;;;12.80;99.90;;;12.29;100.00;101680.00;5074642;28;19925;-62
2021/03/12 07:46:06;;;;;;;;;;;12.90;99.90;;;12.34;100.00;101680.00;5074030;28;20380;-63
2021/03/12 07:48:34;;;;;;;;;;;12.90;99.90;;;12.41;100.00;101688.63;5074346;28;19925;-63
2021/03/12 07:51:06;;;;;;;;;;;13.00;99.90;;;12.46;100.00;101678.53;5074831;28;19925;-62
2021/03/12 07:53:56;;;;;;;;;;;13.10;99.90;;;12.54;100.00;101693.41;5074866;28;19924;-63
2021/03/12 07:56:53;;;;;;;;;;;13.10;99.90;;;12.59;100.00;101696.09;5068793;28;20341;-63
2021/03/12 07:59:21;;;;;;;;;;;13.20;99.90;;;12.67;100.00;101690.09;5068467;28;19951;-63
2021/03/12 08:01:51;;;;;;;;;;;13.30;99.90;;;12.75;100.00;101694.09;5074142;28;19928;-63
2021/03/12 08:04:32;;;;;;;;;;;13.40;99.90;;;12.83;100.00;101699.72;5073879;28;19924;-63
2021/03/12 08:06:59;;;;;;;;;;;13.50;99.90;;;12.90;100.00;101704.81;5072640;28;19924;-63
2021/03/12 08:09:37;;;;;;;;;;;13.50;99.90;;;12.97;100.00;101714.28;5073337;28;19932;-62
2021/03/12 08:12:05;;;;;;;;;;;13.60;99.90;;;13.01;100.00;101722.66;5073323;28;19998;-63
2021/03/12 08:14:32;;;;;;;;;;;13.60;99.90;;;13.02;100.00;101716.94;5073380;28;19936;-63
2021/03/12 08:17:20;;;;;;;;;;;13.60;99.90;;;13.07;100.00;101733.19;5071813;28;19929;-62
2021/03/12 08:19:49;;;;;;;;;;;13.70;99.90;;;13.15;100.00;101737.22;5073477;28;19924;-63
2021/03/12 08:22:44;;;;;;;;;;;13.70;99.90;;;13.16;100.00;101727.19;5073041;28;19928;-63
2021/03/12 08:25:41;;;;;;;;;;;13.70;99.90;;;13.15;100.00;101726.38;5072590;28;19928;-63
2021/03/12 08:28:27;;;;;;;;;;;13.80;99.90;;;13.40;100.00;101722.63;5073017;28;20289;-62
2021/03/12 08:30:56;;;;;;;;;;;;;;;13.92;100.00;101724.50;5072799;28;19925;-62
2021/03/12 08:33:32;;;;;;;;;;;14.40;99.90;;;14.17;100.00;101719.56;5073448;28;19928;-63
2021/03/12 08:36:00;;;;;;;;;;;14.80;99.90;;;14.43;100.00;101722.78;5073171;28;20018;-62
2021/03/12 08:38:38;;;;;;;;;;;14.90;99.90;;;14.67;100.00;101715.34;5073207;28;19925;-63
2021/03/12 08:41:12;;;;;;;;;;;15.10;99.90;;;14.72;100.00;101726.16;5073241;28;20281;-63
2021/03/12 08:43:47;;;;;;;;;;;15.20;99.90;;;14.64;100.00;101723.28;5074093;28;19925;-63
2021/03/12 08:46:17;;;;;;;;;;;15.10;99.90;;;14.55;100.00;101728.59;5073697;28;19924;-63
2021/03/12 08:48:48;;;;;;;;;;;15.00;99.90;;;14.50;100.00;101734.09;5073604;28;19924;-63
2021/03/12 08:51:17;;;;;;;;;;;15.00;99.90;;;14.44;100.00;101740.72;5076938;28;19928;-63
2021/03/12 08:53:49;;;;;;;;;;;15.00;99.90;;;14.32;100.00;101750.41;5077078;28;19928;-62
2021/03/12 08:56:22;;;;;;;;;;;14.90;99.90;;;14.27;100.00;101758.59;5077792;28;20370;-63
2021/03/12 08:58:50;;;;;;;;;;;14.80;99.90;;;14.33;100.00;101758.28;5078242;28;19931;-63
2021/03/12 09:01:20;;;;;;;;;;;14.90;99.90;;;14.50;100.00;101753.16;5077994;28;20002;-63
2021/03/12 09:03:52;;;;;;;;;;;15.00;99.90;;;14.70;100.00;101768.41;5078408;28;20332;-63
2021/03/12 09:06:21;;;;;;;;;;;15.20;99.90;;;14.98;100.00;101764.72;5077369;28;19924;-63
2021/03/12 09:08:49;;;;;;;;;;;15.40;99.90;;;14.90;100.00;101765.38;5077567;28;19931;-63
2021/03/12 09:11:19;;;;;;;;;;;15.40;99.90;;;14.81;100.00;101769.84;5077616;28;19928;-64
2021/03/12 09:13:47;;;;;;;;;;;15.40;99.90;;;14.81;100.00;101764.41;5078425;28;20373;-63
2021/03/12 09:16:20;;;;;;;;;;;15.30;99.90;;;14.68;100.00;101771.41;5077209;28;19928;-63
2021/03/12 09:18:51;;;;;;;;;;;15.20;99.90;;;15.02;100.00;101771.16;5077221;28;19946;-63
2021/03/12 09:21:20;;;;;;;;;;;15.50;99.90;;;15.20;100.00;101774.97;5077524;28;19924;-63
2021/03/12 09:23:49;;;;;;;;;;;15.60;99.90;;;15.17;100.00;101781.81;5077770;28;19924;-63
2021/03/12 09:26:19;;;;;;;;;;;15.60;99.90;;;15.12;100.00;101787.38;5077122;28;19978;-63
2021/03/12 09:28:49;;;;;;;;;;;15.60;99.90;;;15.16;100.00;101776.69;5077901;28;19928;-63
2021/03/12 09:31:18;;;;;;;;;;;15.60;99.90;;;15.41;100.00;101778.19;5076888;28;19993;-63
2021/03/12 09:33:48;;;;;;;;;;;15.70;99.90;;;15.55;100.00;101774.41;5077296;28;19925;-63
2021/03/12 09:36:27;;;;;;;;;;;15.90;99.90;;;15.49;100.00;101780.25;5076659;28;19997;-63
2021/03/12 09:38:56;;;;;;;;;;;15.90;99.90;;;15.65;100.00;101773.44;5076759;28;19925;-64
2021/03/12 09:41:25;;;;;;;;;;;15.90;99.90;;;16.42;100.00;101756.03;5076804;28;20255;-63
2021/03/12 09:44:03;;;;;;;;;;;16.50;99.90;;;16.91;100.00;101762.59;5077532;28;19928;-63
2021/03/12 09:46:32;;;;;;;;;;;17.00;99.90;;;16.78;100.00;101769.72;5075992;28;19924;-63
2021/03/12 09:49:00;;;;;;;;;;;17.00;99.90;;;16.64;100.00;101771.69;5076976;28;19924;-63
2021/03/12 09:51:31;;;;;;;;;;;16.90;99.90;;;16.75;100.00;101770.34;5076955;28;20370;-65
2021/03/12 09:53:59;;;;;;;;;;;16.90;99.90;;;16.71;100.00;101774.00;5076574;28;20020;-64
2021/03/12 09:56:27;;;;;;;;;;;17.00;99.90;;;16.45;100.00;101772.91;5076389;28;19970;-65
2021/03/12 09:58:54;;;;;;;;;;;16.80;99.90;;;16.75;100.00;101775.81;5076446;28;19952;-65
2021/03/12 10:01:22;;;;;;;;;;;17.00;99.90;;;16.74;97.19;101771.47;5075221;28;19924;-65
2021/03/12 10:03:49;;;;;;;;;;;17.00;99.90;;;16.44;99.07;101780.31;5076372;28;19931;-65
2021/03/12 10:06:16;;;;;;;;;;;16.80;99.90;;;16.11;100.00;101785.06;5075762;28;19943;-65
2021/03/12 10:09:05;;;;;;;;;;;16.50;99.90;;;16.47;97.46;101778.88;5075769;28;19931;-65
2021/03/12 10:11:40;;;;;;;;;;;16.70;99.90;;;16.22;95.83;101780.22;5076244;28;19989;-65
2021/03/12 10:14:27;;;;;;;;;;;16.60;99.90;;;15.94;96.29;101776.69;5075582;28;19924;-64
2021/03/12 10:17:16;;;;;;;;;;;16.40;99.90;;;15.93;98.76;101771.53;5073882;28;19931;-65
2021/03/12 10:19:53;;;;;;;;;;;16.30;99.90;;;15.99;98.93;101773.84;5071379;28;20373;-65
2021/03/12 10:22:23;;;;;;;;;;;16.80;99.90;;;16.68;98.36;101774.63;5076495;28;19929;-65
2021/03/12 10:25:00;;;;;;;;;;;17.40;99.90;;;17.46;95.61;101780.38;5076455;28;19925;-64
2021/03/12 10:27:30;;;;;;;;;;;17.60;99.90;;;18.26;91.75;101768.34;5075031;28;19925;-65
2021/03/12 10:29:58;;;;;;;;;;;18.40;99.90;;;18.39;81.93;101766.63;5075848;28;19925;-65
2021/03/12 10:32:26;;;;;;;;;;;18.60;99.90;;;17.96;80.43;101771.97;5075823;28;19977;-65
2021/03/12 10:34:55;;;;;;;;;;;18.30;99.90;;;17.42;82.01;101768.44;5075488;28;19936;-65
2021/03/12 10:37:24;;;;;;;;;;;17.90;99.90;;;17.26;87.27;101769.16;5074345;28;19929;-65
2021/03/12 10:39:53;;;;;;;;;;;17.70;99.90;;;17.11;85.10;101767.59;5076034;28;20390;-65
2021/03/12 10:42:29;;;;;;;;;;;17.60;99.90;;;17.16;86.22;101764.72;5076378;28;19933;-65
2021/03/12 10:44:58;;;;;;;;;;;17.50;99.90;;;17.13;87.97;101759.06;5076042;28;19928;-65
2021/03/12 10:47:26;;;;;;;;;;;17.50;99.90;;;17.16;86.81;101766.66;5074983;28;19951;-65
2021/03/12 10:49:55;;;;;;;;;;;17.50;99.90;;;16.84;83.49;101768.50;5075370;28;19931;-65
2021/03/12 10:52:30;;;;;;;;;;;17.30;99.90;;;16.82;86.01;101759.00;5076016;28;19951;-65
2021/03/12 10:55:04;;;;;;;;;;;17.30;99.90;;;17.43;84.40;101752.84;5074551;28;19929;-65
2021/03/12 10:57:40;;;;;;;;;;;17.60;99.90;;;17.71;72.22;101746.09;5074316;28;19925;-65
2021/03/12 11:00:17;;;;;;;;;;;17.90;99.90;;;17.94;69.16;101739.44;5074992;28;19924;-65
2021/03/12 11:02:44;;;;;;;;;;;18.20;99.90;;;18.14;67.83;101735.31;5075645;28;19985;-65
2021/03/12 11:05:13;;;;;;;;;;;18.40;99.90;;;18.35;67.89;101730.03;5074464;28;19935;-65
2021/03/12 11:07:41;;;;;;;;;;;18.50;99.90;;;18.57;67.75;101727.22;5073895;28;19979;-65
2021/03/12 11:10:09;;;;;;;;;;;18.70;99.90;;;18.51;64.04;101718.31;5074788;28;20019;-65
2021/03/12 11:12:42;;;;;;;;;;;18.70;99.90;;;18.62;62.16;101715.28;5074589;28;19929;-65
2021/03/12 11:15:11;;;;;;;;;;;18.80;99.90;;;18.66;61.47;101718.97;5073936;28;20015;-65
2021/03/12 11:17:41;;;;;;;;;;;;;;;18.73;62.75;101716.53;5073885;28;19971;-65